Ozona, TX

3:47 AM CST on December 20, 2014 (GMT -0600)
Ozona Municipal | Change Station
CLOSE
Current Station
Airport
Location: Ozona,
Elevation: 2382 ft
Nearby Weather Stations

Elev 2382 ft 30.74 °N, 101.20 °W | Updated 12 minutes ago

Fog
Fog
32 °F
Feels Like 26 °F
N
7
Wind Variable Wind from NNE

Today
High -- | Low -- °F
--% Chance of Precip.
Yesterday
High -- | Low -- °F
Precip. -- in
7:37 AM 5:47 PM
Waning Crescent, 4% visible
Pressure 30.19 in
Visibility 0.8 miles
Clouds Overcast 100 ft
Windchill 26 °F
Dew Point 32 °F
Humidity 100%
Rainfall 0.00 in
Snow Depth Not available.
UV 0 out of 12
Pollen 8.10 out of 12
Air Quality Not available.
Flu Activity Not available.
METAR KOZA 200935Z AUTO 02006KT 3/4SM BR OVC001 00/00 A3019 RMK AO2

More Conditions Fewer Conditions

Pressure 30.19 in
Visibility 0.8 miles
Clouds Overcast 100 ft
Windchill 26 °F
Dew Point 32 °F
Humidity 100%
Rainfall 0.00 in
Snow Depth Not available.
UV 0 out of 12
Pollen 8.10 out of 12
Air Quality Not available.
Flu Activity Not available.
METAR KOZA 200935Z AUTO 02006KT 3/4SM BR OVC001 00/00 A3019 RMK AO2

More Conditions Fewer Conditions

Nowcast | as of 3:21 am CST on December 20, 2014

Through the early morning hours...areas of dense fog will reduce visiblities to less than one quarter of a mile at times. Motorists traveling in these areas are urged to slow down...use low beam headlights...and leave plenty of distance between you and the car ahead of you.

×

10-Day Weather Forecast

Almanac

Astronomy

Dec. 20, 2014 Rise Set
Actual Time
Civil Twilight
Nautical Twilight
Astronomical Twilight
Moon
Length of Visible Light
Length of Day
Tomorrow will be .
, % of the Moon is Illuminated

Today's Extremes

State Highs State Lows

Community

WunderPhotos

Upload Photos

1,779,150 photos uploaded!

WunderBlogs® & News

Nearby

Air Quality

  Air Quality AQ Index Pollutant
Not available.

Snow Depth

Station Depth Elevation

Earthquake Activity

City Distance Mag. Time & Date
Minimum magnitude displayed is 2.5.

Coastal Water Temperatures

Place Temperature

Nearby Weather Stations